sensor_id;sensor_type;location;lat;lon;timestamp;temperature;humidity
58666;DHT22;44436;52.872;6.520;2022-07-23T00:00:11;15.90;99.60
58666;DHT22;44436;52.872;6.520;2022-07-23T00:02:36;15.80;99.60
58666;DHT22;44436;52.872;6.520;2022-07-23T00:05:03;15.80;99.60
58666;DHT22;44436;52.872;6.520;2022-07-23T00:07:28;15.80;99.70
58666;DHT22;44436;52.872;6.520;2022-07-23T00:09:54;15.70;99.70
58666;DHT22;44436;52.872;6.520;2022-07-23T00:12:20;15.60;99.90
58666;DHT22;44436;52.872;6.520;2022-07-23T00:14:46;15.60;99.90
58666;DHT22;44436;52.872;6.520;2022-07-23T00:17:12;15.60;99.90
58666;DHT22;44436;52.872;6.520;2022-07-23T00:19:37;15.50;99.90
58666;DHT22;44436;52.872;6.520;2022-07-23T00:22:03;15.40;99.90
58666;DHT22;44436;52.872;6.520;2022-07-23T00:24:29;15.40;99.90
58666;DHT22;44436;52.872;6.520;2022-07-23T00:26:54;15.50;99.90
58666;DHT22;44436;52.872;6.520;2022-07-23T00:29:20;15.40;99.90
58666;DHT22;44436;52.872;6.520;2022-07-23T00:31:46;15.40;99.90
58666;DHT22;44436;52.872;6.520;2022-07-23T00:34:11;15.30;99.90
58666;DHT22;44436;52.872;6.520;2022-07-23T00:36:37;15.30;99.90
58666;DHT22;44436;52.872;6.520;2022-07-23T00:39:03;15.20;99.90
58666;DHT22;44436;52.872;6.520;2022-07-23T00:41:29;15.20;99.90
58666;DHT22;44436;52.872;6.520;2022-07-23T00:43:54;15.20;99.90
58666;DHT22;44436;52.872;6.520;2022-07-23T00:46:21;15.20;99.90
58666;DHT22;44436;52.872;6.520;2022-07-23T00:48:47;15.20;99.90
58666;DHT22;44436;52.872;6.520;2022-07-23T00:51:14;15.10;99.90
58666;DHT22;44436;52.872;6.520;2022-07-23T00:53:40;15.20;99.90
58666;DHT22;44436;52.872;6.520;2022-07-23T00:56:06;15.10;99.90
58666;DHT22;44436;52.872;6.520;2022-07-23T00:58:34;15.00;99.90
58666;DHT22;44436;52.872;6.520;2022-07-23T01:01:00;15.00;99.90
58666;DHT22;44436;52.872;6.520;2022-07-23T01:03:26;14.90;99.90
58666;DHT22;44436;52.872;6.520;2022-07-23T01:05:52;14.90;99.90
58666;DHT22;44436;52.872;6.520;2022-07-23T01:08:18;14.90;99.90
58666;DHT22;44436;52.872;6.520;2022-07-23T01:10:44;14.80;99.90
58666;DHT22;44436;52.872;6.520;2022-07-23T01:13:10;14.80;99.90
58666;DHT22;44436;52.872;6.520;2022-07-23T01:15:37;14.80;99.90
58666;DHT22;44436;52.872;6.520;2022-07-23T01:18:04;14.70;99.90
58666;DHT22;44436;52.872;6.520;2022-07-23T01:20:30;14.70;99.90
58666;DHT22;44436;52.872;6.520;2022-07-23T01:22:56;14.70;99.90
58666;DHT22;44436;52.872;6.520;2022-07-23T01:25:22;14.70;99.90
58666;DHT22;44436;52.872;6.520;2022-07-23T01:27:48;14.70;99.90
58666;DHT22;44436;52.872;6.520;2022-07-23T01:30:17;14.70;99.90
58666;DHT22;44436;52.872;6.520;2022-07-23T01:32:42;14.70;99.90
58666;DHT22;44436;52.872;6.520;2022-07-23T01:35:09;14.70;99.90
58666;DHT22;44436;52.872;6.520;2022-07-23T01:37:35;14.70;99.90
58666;DHT22;44436;52.872;6.520;2022-07-23T01:40:01;14.70;99.90
58666;DHT22;44436;52.872;6.520;2022-07-23T01:42:26;14.60;99.90
58666;DHT22;44436;52.872;6.520;2022-07-23T01:44:52;14.60;99.90
58666;DHT22;44436;52.872;6.520;2022-07-23T01:47:18;14.60;99.90
58666;DHT22;44436;52.872;6.520;2022-07-23T01:49:43;14.50;99.90
58666;DHT22;44436;52.872;6.520;2022-07-23T01:52:09;14.50;99.90
58666;DHT22;44436;52.872;6.520;2022-07-23T01:54:38;14.40;99.90
58666;DHT22;44436;52.872;6.520;2022-07-23T01:57:05;14.40;99.90
58666;DHT22;44436;52.872;6.520;2022-07-23T01:59:31;14.30;99.90
58666;DHT22;44436;52.872;6.520;2022-07-23T02:01:57;14.30;99.90
58666;DHT22;44436;52.872;6.520;2022-07-23T02:04:24;14.30;99.90
58666;DHT22;44436;52.872;6.520;2022-07-23T02:06:50;14.30;99.90
58666;DHT22;44436;52.872;6.520;2022-07-23T02:09:16;14.20;99.90
58666;DHT22;44436;52.872;6.520;2022-07-23T02:11:42;14.20;99.90
58666;DHT22;44436;52.872;6.520;2022-07-23T02:14:07;14.20;99.90
58666;DHT22;44436;52.872;6.520;2022-07-23T02:16:33;14.20;99.90
58666;DHT22;44436;52.872;6.520;2022-07-23T02:18:59;14.20;99.90
58666;DHT22;44436;52.872;6.520;2022-07-23T02:21:24;14.30;99.90
58666;DHT22;44436;52.872;6.520;2022-07-23T02:23:50;14.20;99.90
58666;DHT22;44436;52.872;6.520;2022-07-23T02:26:16;14.20;99.90
58666;DHT22;44436;52.872;6.520;2022-07-23T02:28:41;14.10;99.90
58666;DHT22;44436;52.872;6.520;2022-07-23T02:31:07;14.10;99.90
58666;DHT22;44436;52.872;6.520;2022-07-23T02:33:33;14.00;99.90
58666;DHT22;44436;52.872;6.520;2022-07-23T02:35:59;14.00;99.90
58666;DHT22;44436;52.872;6.520;2022-07-23T02:38:25;14.00;99.90
58666;DHT22;44436;52.872;6.520;2022-07-23T02:40:51;14.00;99.90
58666;DHT22;44436;52.872;6.520;2022-07-23T02:43:16;13.90;99.90
58666;DHT22;44436;52.872;6.520;2022-07-23T02:45:42;13.90;99.90
58666;DHT22;44436;52.872;6.520;2022-07-23T02:48:08;13.90;99.90
58666;DHT22;44436;52.872;6.520;2022-07-23T02:50:33;13.90;99.90
58666;DHT22;44436;52.872;6.520;2022-07-23T02:52:59;13.90;99.90
58666;DHT22;44436;52.872;6.520;2022-07-23T02:55:24;13.90;99.90
58666;DHT22;44436;52.872;6.520;2022-07-23T02:57:50;13.90;99.90
58666;DHT22;44436;52.872;6.520;2022-07-23T03:00:16;13.80;99.90
58666;DHT22;44436;52.872;6.520;2022-07-23T03:02:41;13.80;99.90
58666;DHT22;44436;52.872;6.520;2022-07-23T03:05:07;13.80;99.90
58666;DHT22;44436;52.872;6.520;2022-07-23T03:07:33;13.80;99.90
58666;DHT22;44436;52.872;6.520;2022-07-23T03:09:59;13.70;99.90
58666;DHT22;44436;52.872;6.520;2022-07-23T03:12:24;13.70;99.90
58666;DHT22;44436;52.872;6.520;2022-07-23T03:14:50;13.70;99.90
58666;DHT22;44436;52.872;6.520;2022-07-23T03:17:16;13.70;99.90
58666;DHT22;44436;52.872;6.520;2022-07-23T03:19:42;13.70;99.90
58666;DHT22;44436;52.872;6.520;2022-07-23T03:22:08;13.70;99.90
58666;DHT22;44436;52.872;6.520;2022-07-23T03:24:33;13.70;99.90
58666;DHT22;44436;52.872;6.520;2022-07-23T03:27:18;13.70;99.90
58666;DHT22;44436;52.872;6.520;2022-07-23T03:29:43;13.70;99.90
58666;DHT22;44436;52.872;6.520;2022-07-23T03:32:09;13.70;99.90
58666;DHT22;44436;52.872;6.520;2022-07-23T03:34:35;13.60;99.90
58666;DHT22;44436;52.872;6.520;2022-07-23T03:37:01;13.60;99.90
58666;DHT22;44436;52.872;6.520;2022-07-23T03:39:26;13.60;99.90
58666;DHT22;44436;52.872;6.520;2022-07-23T03:41:52;13.50;99.90
58666;DHT22;44436;52.872;6.520;2022-07-23T03:44:18;13.50;99.90
58666;DHT22;44436;52.872;6.520;2022-07-23T03:46:43;13.50;99.90
58666;DHT22;44436;52.872;6.520;2022-07-23T03:49:09;13.50;99.90
58666;DHT22;44436;52.872;6.520;2022-07-23T03:51:35;13.60;99.90
58666;DHT22;44436;52.872;6.520;2022-07-23T03:54:00;13.60;99.90
58666;DHT22;44436;52.872;6.520;2022-07-23T03:56:26;13.60;99.90
58666;DHT22;44436;52.872;6.520;2022-07-23T03:58:52;13.60;99.90
58666;DHT22;44436;52.872;6.520;2022-07-23T04:01:17;13.50;99.90
58666;DHT22;44436;52.872;6.520;2022-07-23T04:03:43;13.50;99.90
58666;DHT22;44436;52.872;6.520;2022-07-23T04:06:08;13.30;99.90
58666;DHT22;44436;52.872;6.520;2022-07-23T04:08:34;13.20;99.90
58666;DHT22;44436;52.872;6.520;2022-07-23T04:11:00;13.20;99.90
58666;DHT22;44436;52.872;6.520;2022-07-23T04:13:25;13.10;99.90
58666;DHT22;44436;52.872;6.520;2022-07-23T04:15:51;13.10;99.90
58666;DHT22;44436;52.872;6.520;2022-07-23T04:18:17;13.10;99.90
58666;DHT22;44436;52.872;6.520;2022-07-23T04:20:46;13.20;99.90
58666;DHT22;44436;52.872;6.520;2022-07-23T04:23:12;13.10;99.90
58666;DHT22;44436;52.872;6.520;2022-07-23T04:25:38;13.00;99.90
58666;DHT22;44436;52.872;6.520;2022-07-23T04:28:04;13.00;99.90
58666;DHT22;44436;52.872;6.520;2022-07-23T04:30:29;13.00;99.90
58666;DHT22;44436;52.872;6.520;2022-07-23T04:32:55;13.10;99.90
58666;DHT22;44436;52.872;6.520;2022-07-23T04:35:21;13.10;99.90
58666;DHT22;44436;52.872;6.520;2022-07-23T04:37:46;13.20;99.90
58666;DHT22;44436;52.872;6.520;2022-07-23T04:40:13;13.20;99.90
58666;DHT22;44436;52.872;6.520;2022-07-23T04:42:39;13.30;99.90
58666;DHT22;44436;52.872;6.520;2022-07-23T04:45:05;13.30;99.90
58666;DHT22;44436;52.872;6.520;2022-07-23T04:47:31;13.30;99.90
58666;DHT22;44436;52.872;6.520;2022-07-23T04:49:57;13.40;99.90
58666;DHT22;44436;52.872;6.520;2022-07-23T04:52:23;13.40;99.90
58666;DHT22;44436;52.872;6.520;2022-07-23T04:54:49;13.50;99.90
58666;DHT22;44436;52.872;6.520;2022-07-23T04:57:15;13.50;99.90
58666;DHT22;44436;52.872;6.520;2022-07-23T04:59:41;13.60;99.90
58666;DHT22;44436;52.872;6.520;2022-07-23T05:02:06;13.50;99.90
58666;DHT22;44436;52.872;6.520;2022-07-23T05:04:32;13.60;99.90
58666;DHT22;44436;52.872;6.520;2022-07-23T05:06:58;13.70;99.90
58666;DHT22;44436;52.872;6.520;2022-07-23T05:09:24;13.70;99.90
58666;DHT22;44436;52.872;6.520;2022-07-23T05:11:49;13.80;99.90
58666;DHT22;44436;52.872;6.520;2022-07-23T05:14:15;13.80;99.90
58666;DHT22;44436;52.872;6.520;2022-07-23T05:16:41;13.80;99.90
58666;DHT22;44436;52.872;6.520;2022-07-23T05:19:07;13.90;99.90
58666;DHT22;44436;52.872;6.520;2022-07-23T05:21:33;13.90;99.90
58666;DHT22;44436;52.872;6.520;2022-07-23T05:23:58;13.90;99.90
58666;DHT22;44436;52.872;6.520;2022-07-23T05:26:24;14.00;99.90
58666;DHT22;44436;52.872;6.520;2022-07-23T05:28:50;14.00;99.90
58666;DHT22;44436;52.872;6.520;2022-07-23T05:31:16;14.10;99.90
58666;DHT22;44436;52.872;6.520;2022-07-23T05:33:42;14.10;99.90
58666;DHT22;44436;52.872;6.520;2022-07-23T05:36:08;14.10;99.90
58666;DHT22;44436;52.872;6.520;2022-07-23T05:38:34;14.10;99.90
58666;DHT22;44436;52.872;6.520;2022-07-23T05:41:00;14.20;99.90
58666;DHT22;44436;52.872;6.520;2022-07-23T05:43:26;14.20;99.90
58666;DHT22;44436;52.872;6.520;2022-07-23T05:45:52;14.20;99.90
58666;DHT22;44436;52.872;6.520;2022-07-23T05:48:18;14.30;99.90
58666;DHT22;44436;52.872;6.520;2022-07-23T05:50:43;14.40;99.90
58666;DHT22;44436;52.872;6.520;2022-07-23T05:53:09;14.40;99.90
58666;DHT22;44436;52.872;6.520;2022-07-23T05:55:34;14.40;99.90
58666;DHT22;44436;52.872;6.520;2022-07-23T05:58:00;14.50;99.90
58666;DHT22;44436;52.872;6.520;2022-07-23T06:00:26;14.50;99.90
58666;DHT22;44436;52.872;6.520;2022-07-23T06:02:52;14.60;99.90
58666;DHT22;44436;52.872;6.520;2022-07-23T06:05:18;14.60;99.90
58666;DHT22;44436;52.872;6.520;2022-07-23T06:07:44;14.70;99.90
58666;DHT22;44436;52.872;6.520;2022-07-23T06:10:10;14.80;99.90
58666;DHT22;44436;52.872;6.520;2022-07-23T06:12:36;14.80;99.90
58666;DHT22;44436;52.872;6.520;2022-07-23T06:15:03;14.90;99.90
58666;DHT22;44436;52.872;6.520;2022-07-23T06:17:28;15.00;99.90
58666;DHT22;44436;52.872;6.520;2022-07-23T06:19:55;15.10;99.90
58666;DHT22;44436;52.872;6.520;2022-07-23T06:22:21;15.10;99.90
58666;DHT22;44436;52.872;6.520;2022-07-23T06:24:48;15.30;99.90
58666;DHT22;44436;52.872;6.520;2022-07-23T06:27:14;15.30;99.90
58666;DHT22;44436;52.872;6.520;2022-07-23T06:29:39;15.40;99.90
58666;DHT22;44436;52.872;6.520;2022-07-23T06:32:06;15.50;99.90
58666;DHT22;44436;52.872;6.520;2022-07-23T06:34:32;15.60;99.90
58666;DHT22;44436;52.872;6.520;2022-07-23T06:36:59;15.70;99.90
58666;DHT22;44436;52.872;6.520;2022-07-23T06:39:25;15.80;99.90
58666;DHT22;44436;52.872;6.520;2022-07-23T06:41:51;15.80;99.90
58666;DHT22;44436;52.872;6.520;2022-07-23T06:44:17;15.90;99.90
58666;DHT22;44436;52.872;6.520;2022-07-23T06:46:43;16.00;99.90
58666;DHT22;44436;52.872;6.520;2022-07-23T06:49:08;16.10;99.90
58666;DHT22;44436;52.872;6.520;2022-07-23T06:51:34;16.20;99.90
58666;DHT22;44436;52.872;6.520;2022-07-23T06:54:00;16.20;99.90
58666;DHT22;44436;52.872;6.520;2022-07-23T06:56:25;16.30;99.90
58666;DHT22;44436;52.872;6.520;2022-07-23T06:58:51;16.40;99.90
58666;DHT22;44436;52.872;6.520;2022-07-23T07:01:17;16.40;99.60
58666;DHT22;44436;52.872;6.520;2022-07-23T07:03:43;16.50;99.40
58666;DHT22;44436;52.872;6.520;2022-07-23T07:06:08;16.60;99.30
58666;DHT22;44436;52.872;6.520;2022-07-23T07:08:34;16.60;99.20
58666;DHT22;44436;52.872;6.520;2022-07-23T07:11:00;16.80;99.10
58666;DHT22;44436;52.872;6.520;2022-07-23T07:13:25;16.90;98.80
58666;DHT22;44436;52.872;6.520;2022-07-23T07:15:51;16.90;98.20
58666;DHT22;44436;52.872;6.520;2022-07-23T07:18:17;16.90;97.50
58666;DHT22;44436;52.872;6.520;2022-07-23T07:20:42;16.90;97.20
58666;DHT22;44436;52.872;6.520;2022-07-23T07:23:08;17.00;97.20
58666;DHT22;44436;52.872;6.520;2022-07-23T07:25:34;17.00;97.10
58666;DHT22;44436;52.872;6.520;2022-07-23T07:27:59;17.10;97.10
58666;DHT22;44436;52.872;6.520;2022-07-23T07:30:25;17.10;96.90
58666;DHT22;44436;52.872;6.520;2022-07-23T07:32:51;17.20;96.60
58666;DHT22;44436;52.872;6.520;2022-07-23T07:35:16;17.30;96.50
58666;DHT22;44436;52.872;6.520;2022-07-23T07:37:42;17.30;96.40
58666;DHT22;44436;52.872;6.520;2022-07-23T07:40:08;17.40;96.20
58666;DHT22;44436;52.872;6.520;2022-07-23T07:42:34;17.50;95.80
58666;DHT22;44436;52.872;6.520;2022-07-23T07:44:59;17.60;95.50
58666;DHT22;44436;52.872;6.520;2022-07-23T07:47:25;17.50;95.30
58666;DHT22;44436;52.872;6.520;2022-07-23T07:49:51;17.60;95.10
58666;DHT22;44436;52.872;6.520;2022-07-23T07:52:17;17.80;94.60
58666;DHT22;44436;52.872;6.520;2022-07-23T07:54:42;17.80;94.10
58666;DHT22;44436;52.872;6.520;2022-07-23T07:57:09;17.80;93.90
58666;DHT22;44436;52.872;6.520;2022-07-23T07:59:35;17.90;93.60
58666;DHT22;44436;52.872;6.520;2022-07-23T08:02:01;18.00;93.50
58666;DHT22;44436;52.872;6.520;2022-07-23T08:04:26;18.10;93.60
58666;DHT22;44436;52.872;6.520;2022-07-23T08:06:52;18.20;93.30
58666;DHT22;44436;52.872;6.520;2022-07-23T08:09:18;18.30;92.90
58666;DHT22;44436;52.872;6.520;2022-07-23T08:11:43;18.40;92.80
58666;DHT22;44436;52.872;6.520;2022-07-23T08:14:09;18.40;92.80
58666;DHT22;44436;52.872;6.520;2022-07-23T08:16:36;18.50;92.20
58666;DHT22;44436;52.872;6.520;2022-07-23T08:19:02;18.60;91.70
58666;DHT22;44436;52.872;6.520;2022-07-23T08:21:28;18.60;91.60
58666;DHT22;44436;52.872;6.520;2022-07-23T08:23:53;18.60;91.50
58666;DHT22;44436;52.872;6.520;2022-07-23T08:26:19;18.70;91.20
58666;DHT22;44436;52.872;6.520;2022-07-23T08:28:44;18.70;91.30
58666;DHT22;44436;52.872;6.520;2022-07-23T08:31:10;18.70;90.80
58666;DHT22;44436;52.872;6.520;2022-07-23T08:33:37;18.70;90.60
58666;DHT22;44436;52.872;6.520;2022-07-23T08:36:03;18.80;90.50
58666;DHT22;44436;52.872;6.520;2022-07-23T08:38:29;18.80;90.40
58666;DHT22;44436;52.872;6.520;2022-07-23T08:40:56;18.90;90.50
58666;DHT22;44436;52.872;6.520;2022-07-23T08:43:28;19.00;90.20
58666;DHT22;44436;52.872;6.520;2022-07-23T08:45:55;19.10;90.20
58666;DHT22;44436;52.872;6.520;2022-07-23T08:48:25;19.10;90.10
58666;DHT22;44436;52.872;6.520;2022-07-23T08:50:53;19.20;89.00
58666;DHT22;44436;52.872;6.520;2022-07-23T08:53:21;19.30;88.80
58666;DHT22;44436;52.872;6.520;2022-07-23T08:55:52;19.30;88.20
58666;DHT22;44436;52.872;6.520;2022-07-23T08:58:19;19.50;87.90
58666;DHT22;44436;52.872;6.520;2022-07-23T09:00:46;19.60;88.10
58666;DHT22;44436;52.872;6.520;2022-07-23T09:03:19;19.70;87.10
58666;DHT22;44436;52.872;6.520;2022-07-23T09:05:45;19.80;86.90
58666;DHT22;44436;52.872;6.520;2022-07-23T09:15:56;19.70;84.50
58666;DHT22;44436;52.872;6.520;2022-07-23T09:18:30;19.70;84.60
58666;DHT22;44436;52.872;6.520;2022-07-23T09:23:37;19.80;84.10
58666;DHT22;44436;52.872;6.520;2022-07-23T09:28:51;20.00;82.50
58666;DHT22;44436;52.872;6.520;2022-07-23T09:31:17;20.10;82.10
58666;DHT22;44436;52.872;6.520;2022-07-23T09:33:43;20.10;82.40
58666;DHT22;44436;52.872;6.520;2022-07-23T09:36:08;20.00;82.30
58666;DHT22;44436;52.872;6.520;2022-07-23T09:38:35;20.00;81.80
58666;DHT22;44436;52.872;6.520;2022-07-23T09:41:12;20.00;82.10
58666;DHT22;44436;52.872;6.520;2022-07-23T09:43:39;20.20;81.90
58666;DHT22;44436;52.872;6.520;2022-07-23T09:46:37;20.20;81.80
58666;DHT22;44436;52.872;6.520;2022-07-23T09:49:13;20.30;81.00
58666;DHT22;44436;52.872;6.520;2022-07-23T09:51:44;20.40;81.80
58666;DHT22;44436;52.872;6.520;2022-07-23T09:56:53;20.50;79.40
58666;DHT22;44436;52.872;6.520;2022-07-23T09:59:24;20.50;79.80
58666;DHT22;44436;52.872;6.520;2022-07-23T10:01:51;20.60;80.40
58666;DHT22;44436;52.872;6.520;2022-07-23T10:04:18;20.70;79.70
58666;DHT22;44436;52.872;6.520;2022-07-23T10:06:45;20.70;79.70
58666;DHT22;44436;52.872;6.520;2022-07-23T10:09:12;20.60;79.90
58666;DHT22;44436;52.872;6.520;2022-07-23T10:11:42;20.70;80.10
58666;DHT22;44436;52.872;6.520;2022-07-23T10:14:08;20.90;79.80
58666;DHT22;44436;52.872;6.520;2022-07-23T10:16:33;21.00;78.50
58666;DHT22;44436;52.872;6.520;2022-07-23T10:19:00;21.10;78.50
58666;DHT22;44436;52.872;6.520;2022-07-23T10:21:45;21.20;79.10
58666;DHT22;44436;52.872;6.520;2022-07-23T10:32:23;21.50;77.40
58666;DHT22;44436;52.872;6.520;2022-07-23T10:34:57;21.60;79.30
58666;DHT22;44436;52.872;6.520;2022-07-23T10:37:32;21.50;78.70
58666;DHT22;44436;52.872;6.520;2022-07-23T10:40:13;21.50;77.40
58666;DHT22;44436;52.872;6.520;2022-07-23T10:42:39;21.50;76.20
58666;DHT22;44436;52.872;6.520;2022-07-23T10:47:55;21.90;78.30
58666;DHT22;44436;52.872;6.520;2022-07-23T10:50:27;21.90;77.20
58666;DHT22;44436;52.872;6.520;2022-07-23T10:53:13;22.00;77.30
58666;DHT22;44436;52.872;6.520;2022-07-23T10:55:42;22.10;75.50
58666;DHT22;44436;52.872;6.520;2022-07-23T10:58:08;22.10;76.20
58666;DHT22;44436;52.872;6.520;2022-07-23T11:00:35;22.10;75.90
58666;DHT22;44436;52.872;6.520;2022-07-23T11:03:05;22.20;76.30
58666;DHT22;44436;52.872;6.520;2022-07-23T11:05:48;22.20;74.80
58666;DHT22;44436;52.872;6.520;2022-07-23T11:08:16;22.30;75.90
58666;DHT22;44436;52.872;6.520;2022-07-23T11:13:40;22.60;74.00
58666;DHT22;44436;52.872;6.520;2022-07-23T11:18:56;22.90;74.70
58666;DHT22;44436;52.872;6.520;2022-07-23T11:26:43;23.00;72.70
58666;DHT22;44436;52.872;6.520;2022-07-23T11:31:58;22.90;72.80
58666;DHT22;44436;52.872;6.520;2022-07-23T11:34:30;22.90;72.80
58666;DHT22;44436;52.872;6.520;2022-07-23T11:36:57;22.80;74.50
58666;DHT22;44436;52.872;6.520;2022-07-23T11:39:26;22.70;74.40
58666;DHT22;44436;52.872;6.520;2022-07-23T11:41:53;22.80;75.00
58666;DHT22;44436;52.872;6.520;2022-07-23T11:46:58;22.70;73.60
58666;DHT22;44436;52.872;6.520;2022-07-23T11:49:24;22.60;73.00
58666;DHT22;44436;52.872;6.520;2022-07-23T11:52:07;22.60;74.20
58666;DHT22;44436;52.872;6.520;2022-07-23T11:54:35;22.60;75.20
58666;DHT22;44436;52.872;6.520;2022-07-23T11:57:02;22.60;74.70
58666;DHT22;44436;52.872;6.520;2022-07-23T11:59:31;22.60;74.10
58666;DHT22;44436;52.872;6.520;2022-07-23T12:02:04;22.60;74.30
58666;DHT22;44436;52.872;6.520;2022-07-23T12:04:41;22.70;74.50
58666;DHT22;44436;52.872;6.520;2022-07-23T12:07:36;22.90;73.60
58666;DHT22;44436;52.872;6.520;2022-07-23T12:12:40;23.20;74.10
58666;DHT22;44436;52.872;6.520;2022-07-23T12:15:07;23.10;73.10
58666;DHT22;44436;52.872;6.520;2022-07-23T12:17:36;23.10;72.80
58666;DHT22;44436;52.872;6.520;2022-07-23T12:20:04;23.10;72.20
58666;DHT22;44436;52.872;6.520;2022-07-23T12:22:39;23.20;73.20
58666;DHT22;44436;52.872;6.520;2022-07-23T12:25:08;23.20;72.80
58666;DHT22;44436;52.872;6.520;2022-07-23T12:27:35;23.30;72.30
58666;DHT22;44436;52.872;6.520;2022-07-23T12:32:47;23.50;72.10
58666;DHT22;44436;52.872;6.520;2022-07-23T12:35:13;23.60;72.00
58666;DHT22;44436;52.872;6.520;2022-07-23T12:37:41;23.60;71.50
58666;DHT22;44436;52.872;6.520;2022-07-23T12:40:27;23.70;70.10
58666;DHT22;44436;52.872;6.520;2022-07-23T12:45:21;24.00;70.10
58666;DHT22;44436;52.872;6.520;2022-07-23T12:48:01;24.10;69.70
58666;DHT22;44436;52.872;6.520;2022-07-23T12:50:35;24.30;69.50
58666;DHT22;44436;52.872;6.520;2022-07-23T12:53:13;24.30;69.20
58666;DHT22;44436;52.872;6.520;2022-07-23T12:55:40;24.20;68.80
58666;DHT22;44436;52.872;6.520;2022-07-23T13:01:03;24.10;68.80
58666;DHT22;44436;52.872;6.520;2022-07-23T13:03:31;24.10;69.40
58666;DHT22;44436;52.872;6.520;2022-07-23T13:05:59;24.10;68.40
58666;DHT22;44436;52.872;6.520;2022-07-23T13:08:26;24.10;68.50
58666;DHT22;44436;52.872;6.520;2022-07-23T13:10:52;24.10;68.40
58666;DHT22;44436;52.872;6.520;2022-07-23T13:13:23;24.00;69.20
58666;DHT22;44436;52.872;6.520;2022-07-23T13:15:49;24.00;69.50
58666;DHT22;44436;52.872;6.520;2022-07-23T13:18:15;24.00;69.50
58666;DHT22;44436;52.872;6.520;2022-07-23T13:20:43;24.10;69.60
58666;DHT22;44436;52.872;6.520;2022-07-23T13:23:09;24.20;68.60
58666;DHT22;44436;52.872;6.520;2022-07-23T13:25:34;24.20;68.10
58666;DHT22;44436;52.872;6.520;2022-07-23T13:28:00;24.20;68.70
58666;DHT22;44436;52.872;6.520;2022-07-23T13:30:26;24.20;68.80
58666;DHT22;44436;52.872;6.520;2022-07-23T13:32:52;24.20;68.00
58666;DHT22;44436;52.872;6.520;2022-07-23T13:35:17;24.10;67.50
58666;DHT22;44436;52.872;6.520;2022-07-23T13:37:43;24.00;67.90
58666;DHT22;44436;52.872;6.520;2022-07-23T13:40:09;23.90;68.30
58666;DHT22;44436;52.872;6.520;2022-07-23T13:42:36;23.90;69.00
58666;DHT22;44436;52.872;6.520;2022-07-23T13:45:04;23.90;69.10
58666;DHT22;44436;52.872;6.520;2022-07-23T13:47:29;23.90;68.40
58666;DHT22;44436;52.872;6.520;2022-07-23T13:49:55;23.90;68.90
58666;DHT22;44436;52.872;6.520;2022-07-23T13:52:21;23.90;69.20
58666;DHT22;44436;52.872;6.520;2022-07-23T13:54:47;23.90;68.90
58666;DHT22;44436;52.872;6.520;2022-07-23T13:57:12;24.00;69.00
58666;DHT22;44436;52.872;6.520;2022-07-23T13:59:38;23.90;69.00
58666;DHT22;44436;52.872;6.520;2022-07-23T14:02:04;24.00;70.70
58666;DHT22;44436;52.872;6.520;2022-07-23T14:04:30;24.00;69.90
58666;DHT22;44436;52.872;6.520;2022-07-23T14:06:56;24.00;70.60
58666;DHT22;44436;52.872;6.520;2022-07-23T14:09:22;24.20;71.20
58666;DHT22;44436;52.872;6.520;2022-07-23T14:11:48;24.30;69.10
58666;DHT22;44436;52.872;6.520;2022-07-23T14:14:15;24.30;68.60
58666;DHT22;44436;52.872;6.520;2022-07-23T14:16:41;24.40;69.30
58666;DHT22;44436;52.872;6.520;2022-07-23T14:19:06;24.40;68.10
58666;DHT22;44436;52.872;6.520;2022-07-23T14:21:32;24.40;67.70
58666;DHT22;44436;52.872;6.520;2022-07-23T14:23:58;24.30;68.20
58666;DHT22;44436;52.872;6.520;2022-07-23T14:26:23;24.40;69.50
58666;DHT22;44436;52.872;6.520;2022-07-23T14:28:49;24.50;68.10
58666;DHT22;44436;52.872;6.520;2022-07-23T14:31:15;24.70;66.70
58666;DHT22;44436;52.872;6.520;2022-07-23T14:33:40;24.80;67.50
58666;DHT22;44436;52.872;6.520;2022-07-23T14:36:06;25.00;66.80
58666;DHT22;44436;52.872;6.520;2022-07-23T14:38:32;25.10;65.80
58666;DHT22;44436;52.872;6.520;2022-07-23T14:40:57;25.30;66.50
58666;DHT22;44436;52.872;6.520;2022-07-23T14:43:23;25.30;66.10
58666;DHT22;44436;52.872;6.520;2022-07-23T14:45:49;25.40;65.70
58666;DHT22;44436;52.872;6.520;2022-07-23T14:48:14;25.50;64.30
58666;DHT22;44436;52.872;6.520;2022-07-23T14:50:40;25.50;64.00
58666;DHT22;44436;52.872;6.520;2022-07-23T14:53:06;25.60;64.00
58666;DHT22;44436;52.872;6.520;2022-07-23T14:55:32;25.60;63.30
58666;DHT22;44436;52.872;6.520;2022-07-23T14:57:58;25.70;64.50
58666;DHT22;44436;52.872;6.520;2022-07-23T15:00:24;25.80;63.40
58666;DHT22;44436;52.872;6.520;2022-07-23T15:02:50;25.80;63.00
58666;DHT22;44436;52.872;6.520;2022-07-23T15:05:16;25.90;62.90
58666;DHT22;44436;52.872;6.520;2022-07-23T15:07:42;25.90;63.40
58666;DHT22;44436;52.872;6.520;2022-07-23T15:10:07;25.90;62.40
58666;DHT22;44436;52.872;6.520;2022-07-23T15:12:33;26.00;62.10
58666;DHT22;44436;52.872;6.520;2022-07-23T15:14:59;26.10;62.00
58666;DHT22;44436;52.872;6.520;2022-07-23T15:17:25;26.20;62.60
58666;DHT22;44436;52.872;6.520;2022-07-23T15:19:50;26.30;62.80
58666;DHT22;44436;52.872;6.520;2022-07-23T15:22:17;26.40;61.80
58666;DHT22;44436;52.872;6.520;2022-07-23T15:24:42;26.50;60.70
58666;DHT22;44436;52.872;6.520;2022-07-23T15:27:08;26.50;61.30
58666;DHT22;44436;52.872;6.520;2022-07-23T15:29:34;26.60;60.90
58666;DHT22;44436;52.872;6.520;2022-07-23T15:32:00;26.60;61.00
58666;DHT22;44436;52.872;6.520;2022-07-23T15:34:26;26.60;62.10
58666;DHT22;44436;52.872;6.520;2022-07-23T15:36:52;26.70;60.90
58666;DHT22;44436;52.872;6.520;2022-07-23T15:39:18;26.70;61.30
58666;DHT22;44436;52.872;6.520;2022-07-23T15:41:43;26.70;60.70
58666;DHT22;44436;52.872;6.520;2022-07-23T15:44:09;26.80;61.30
58666;DHT22;44436;52.872;6.520;2022-07-23T15:46:36;26.80;60.70
58666;DHT22;44436;52.872;6.520;2022-07-23T15:49:01;26.80;60.50
58666;DHT22;44436;52.872;6.520;2022-07-23T15:51:27;26.90;61.20
58666;DHT22;44436;52.872;6.520;2022-07-23T15:53:54;26.90;60.70
58666;DHT22;44436;52.872;6.520;2022-07-23T15:56:20;26.90;59.80
58666;DHT22;44436;52.872;6.520;2022-07-23T15:58:45;27.00;59.20
58666;DHT22;44436;52.872;6.520;2022-07-23T16:01:11;27.00;58.70
58666;DHT22;44436;52.872;6.520;2022-07-23T16:03:37;27.10;58.50
58666;DHT22;44436;52.872;6.520;2022-07-23T16:06:04;27.10;59.80
58666;DHT22;44436;52.872;6.520;2022-07-23T16:08:30;27.20;58.90
58666;DHT22;44436;52.872;6.520;2022-07-23T16:10:56;27.30;59.40
58666;DHT22;44436;52.872;6.520;2022-07-23T16:13:27;27.40;58.90
58666;DHT22;44436;52.872;6.520;2022-07-23T16:15:53;27.50;58.50
58666;DHT22;44436;52.872;6.520;2022-07-23T16:18:21;27.50;57.30
58666;DHT22;44436;52.872;6.520;2022-07-23T16:20:48;27.40;57.30